To NAV CANADA Home Page Login to a new session Search on AWWS site Feedback and Comments Disclaimer Vers la page française équivalente Tips FAQ What's new on the site To the Forecasts and Observations / NOTAM section To "File a Flight Plan" website Publications and other links Update of the User's profile FIC Telephone Numbers My Weather Data Folder Route Weather Data Regional Weather Data Local Weather Data To the Forecasts and Observations / NOTAM section
Request Generated 05/04/2016 at 00:00:46 UTC . Weather information available at that time is displayed.

METAR/TAF

SWIFT CURRENT/SK    (show WxCam)

METAR CYYN 032300Z AUTO 22010G16KT 130V300 9SM CLR 27/02 A3001 RMK
SLP158 DENSITY ALT 4500FT=
METAR CYYN 032200Z AUTO 16005KT 100V220 9SM FEW100 27/02 A3002 RMK
SLP163 DENSITY ALT 4400FT=
METAR CYYN 032100Z AUTO VRB04KT 9SM CLR 26/01 A3003 RMK SLP167
DENSITY ALT 4400FT=

TAF CYYN 032339Z 0400/0412 22010KT P6SM SKC
BECMG 0404/0406 16012KT
RMK FCST BASED ON AUTO OBS. NXT FCST BY 040600Z=
Your time UTC time
Weather data provided by Environment Canada and NAV CANADA